Time;durP1;ratioP1;P1;durP2;ratioP2;P2;SDS_P1;SDS_P2;PMS_P1;PMS_P2;Temp;Humidity;BMP_temperature;BMP_pressure;BME280_temperature;BME280_humidity;BME280_pressure;Samples;Min_cycle;Max_cycle;Signal;HPM_P1;HPM_P2
2022/08/30 00:01:05;;;;;;;4.57;3.40;;;13.40;99.90;;;;;;5053374;28;20078;-71
2022/08/30 00:03:46;;;;;;;6.90;3.40;;;13.40;99.90;;;;;;5053428;28;20049;-72
2022/08/30 00:06:16;;;;;;;5.47;3.88;;;13.30;99.90;;;;;;5053185;28;20048;-72
2022/08/30 00:08:43;;;;;;;4.97;3.28;;;13.30;99.90;;;;;;5035557;28;20053;-73
2022/08/30 00:11:13;;;;;;;3.78;2.45;;;13.30;99.90;;;;;;5053624;28;20152;-75
2022/08/30 00:13:41;;;;;;;3.88;2.75;;;13.30;99.90;;;;;;5052923;28;20644;-75
2022/08/30 00:16:08;;;;;;;3.90;2.90;;;13.20;99.90;;;;;;5035003;28;20049;-72
2022/08/30 00:18:35;;;;;;;3.67;2.42;;;13.20;99.90;;;;;;5034793;28;20693;-73
2022/08/30 00:21:02;;;;;;;5.75;4.53;;;13.20;99.90;;;;;;5052850;28;20049;-76
2022/08/30 00:23:28;;;;;;;9.90;7.32;;;13.20;99.90;;;;;;5052821;28;20053;-73
2022/08/30 00:25:54;;;;;;;11.10;7.65;;;13.10;99.90;;;;;;5052783;28;20095;-71
2022/08/30 00:28:20;;;;;;;10.70;8.65;;;13.10;99.90;;;;;;5053279;28;20041;-75
2022/08/30 00:30:46;;;;;;;7.38;6.22;;;13.10;99.90;;;;;;5052755;28;20117;-71
2022/08/30 00:33:13;;;;;;;5.32;3.58;;;13.10;99.90;;;;;;5052790;28;20083;-70
2022/08/30 00:35:40;;;;;;;5.43;3.50;;;13.00;99.90;;;;;;5053722;28;20078;-71
2022/08/30 00:38:10;;;;;;;5.03;3.92;;;13.10;99.90;;;;;;5034681;28;20045;-72
2022/08/30 00:40:43;;;;;;;5.25;3.83;;;13.00;99.90;;;;;;5052527;28;20072;-71
2022/08/30 00:43:14;;;;;;;5.28;3.65;;;13.00;99.90;;;;;;5052239;28;20055;-71
2022/08/30 00:45:40;;;;;;;4.43;3.20;;;13.00;99.90;;;;;;5053508;28;20056;-71
2022/08/30 00:48:06;;;;;;;5.13;3.15;;;13.00;99.90;;;;;;5052363;28;20416;-72
2022/08/30 00:50:37;;;;;;;4.30;3.15;;;13.10;99.90;;;;;;5052226;28;20045;-70
2022/08/30 00:53:07;;;;;;;3.85;3.17;;;13.20;99.90;;;;;;5052172;28;20053;-71
2022/08/30 00:55:33;;;;;;;4.57;3.20;;;13.00;99.90;;;;;;5051924;28;20052;-69
2022/08/30 00:58:03;;;;;;;6.85;4.10;;;13.00;99.90;;;;;;5073064;28;20040;-70
2022/08/30 01:00:30;;;;;;;5.53;3.72;;;13.10;99.90;;;;;;5074132;28;20044;-71
2022/08/30 01:02:56;;;;;;;6.00;3.80;;;13.00;99.90;;;;;;5092331;28;20070;-71
2022/08/30 01:05:22;;;;;;;5.75;3.58;;;13.00;99.90;;;;;;5073867;28;20096;-72
2022/08/30 01:07:48;;;;;;;6.75;4.13;;;13.10;99.90;;;;;;5065931;28;20040;-70
2022/08/30 01:10:15;;;;;;;7.53;3.58;;;13.00;99.90;;;;;;5033731;28;20048;-70
2022/08/30 01:12:42;;;;;;;6.40;3.83;;;13.10;99.90;;;;;;5033918;28;20091;-72
2022/08/30 01:15:09;;;;;;;5.80;4.00;;;13.00;99.90;;;;;;5052273;28;20060;-71
2022/08/30 01:17:36;;;;;;;5.65;4.00;;;13.00;99.90;;;;;;5035209;28;20053;-71
2022/08/30 01:20:09;;;;;;;8.85;3.92;;;13.00;99.90;;;;;;5051819;28;20141;-71
2022/08/30 01:22:50;;;;;;;6.20;4.10;;;13.10;99.90;;;;;;5051848;28;20118;-71
2022/08/30 01:25:21;;;;;;;7.40;3.90;;;13.20;99.90;;;;;;5052914;28;20140;-70
2022/08/30 01:27:55;;;;;;;7.57;3.95;;;13.00;99.90;;;;;;5051873;28;20060;-70
2022/08/30 01:30:22;;;;;;;5.90;3.97;;;12.90;99.90;;;;;;5051085;28;20112;-71
2022/08/30 01:32:51;;;;;;;6.40;4.30;;;13.10;99.90;;;;;;5051559;28;20049;-71
2022/08/30 01:35:18;;;;;;;6.43;4.28;;;12.90;99.90;;;;;;5052364;28;20044;-71
2022/08/30 01:37:44;;;;;;;5.88;4.30;;;12.90;99.90;;;;;;5051664;28;20106;-71
2022/08/30 01:40:12;;;;;;;5.32;3.70;;;12.90;99.90;;;;;;5051502;28;20186;-70
2022/08/30 01:42:38;;;;;;;8.85;4.15;;;12.90;99.90;;;;;;5051343;28;20369;-71
2022/08/30 01:45:05;;;;;;;6.63;3.83;;;12.90;99.90;;;;;;5050969;28;20075;-70
2022/08/30 01:47:31;;;;;;;8.88;3.83;;;12.90;99.90;;;;;;5052196;28;20127;-70
2022/08/30 01:49:57;;;;;;;6.25;3.22;;;12.90;99.90;;;;;;5051070;28;20187;-70
2022/08/30 01:52:25;;;;;;;5.53;3.35;;;12.90;99.90;;;;;;5062235;28;20048;-70
2022/08/30 01:54:51;;;;;;;6.05;3.38;;;12.90;99.90;;;;;;5071145;28;20119;-70
2022/08/30 01:57:20;;;;;;;6.00;3.50;;;12.90;99.90;;;;;;5069072;28;20071;-71
2022/08/30 01:59:48;;;;;;;7.95;3.00;;;13.00;99.90;;;;;;5070838;28;20048;-70
2022/08/30 02:02:24;;;;;;;5.80;3.33;;;12.90;99.90;;;;;;5076926;28;20061;-71
2022/08/30 02:04:51;;;;;;;6.22;3.35;;;12.80;99.90;;;;;;5070089;28;20448;-70
2022/08/30 02:07:17;;;;;;;5.18;3.63;;;12.80;99.90;;;;;;5091450;28;20104;-72
2022/08/30 02:09:43;;;;;;;4.75;2.90;;;13.00;99.90;;;;;;5091209;28;20139;-74
2022/08/30 02:12:09;;;;;;;4.20;3.38;;;12.90;99.90;;;;;;5071563;28;20204;-72
2022/08/30 02:14:36;;;;;;;5.43;3.15;;;12.80;99.90;;;;;;5072089;28;20048;-71
2022/08/30 02:17:03;;;;;;;4.63;3.38;;;12.80;99.90;;;;;;5088105;28;20121;-74
2022/08/30 02:19:29;;;;;;;6.53;3.65;;;12.80;99.90;;;;;;5037758;28;20041;-71
2022/08/30 02:21:54;;;;;;;6.05;3.25;;;12.90;99.90;;;;;;5050784;28;20049;-70
2022/08/30 02:24:20;;;;;;;8.82;3.67;;;12.80;99.90;;;;;;5053023;28;20048;-71
2022/08/30 02:26:46;;;;;;;7.50;3.60;;;12.80;99.90;;;;;;5090749;28;20051;-70
2022/08/30 02:29:12;;;;;;;6.03;4.15;;;12.80;99.90;;;;;;5087011;28;20043;-70
2022/08/30 02:31:37;;;;;;;7.47;3.60;;;12.90;99.90;;;;;;5070558;28;20044;-70
2022/08/30 02:34:03;;;;;;;7.55;3.83;;;12.80;99.90;;;;;;5069773;28;20041;-70
2022/08/30 02:36:29;;;;;;;4.82;3.80;;;12.80;99.90;;;;;;5050774;28;20048;-71
2022/08/30 02:38:55;;;;;;;6.80;3.72;;;12.80;99.90;;;;;;5070386;28;20127;-72
2022/08/30 02:41:22;;;;;;;6.32;3.40;;;12.70;99.90;;;;;;5069517;28;20119;-71
2022/08/30 02:43:49;;;;;;;6.03;3.40;;;12.80;99.90;;;;;;5055869;28;20056;-74
2022/08/30 02:46:15;;;;;;;7.72;3.38;;;12.80;99.90;;;;;;5061293;28;20053;-72
2022/08/30 02:48:41;;;;;;;4.65;3.30;;;12.90;99.90;;;;;;5049903;28;20044;-71
2022/08/30 02:51:10;;;;;;;4.68;3.47;;;12.70;99.90;;;;;;5032068;28;20064;-71
2022/08/30 02:53:35;;;;;;;4.43;3.10;;;12.70;99.90;;;;;;5049849;28;20595;-72
2022/08/30 02:56:01;;;;;;;5.85;2.90;;;12.90;99.90;;;;;;5051202;28;20181;-71
2022/08/30 02:58:27;;;;;;;4.70;3.28;;;12.70;99.90;;;;;;5056407;28;20051;-72
2022/08/30 03:00:52;;;;;;;4.78;3.10;;;12.70;99.90;;;;;;5090233;28;20126;-73
2022/08/30 03:03:18;;;;;;;6.80;3.28;;;12.70;99.90;;;;;;5076500;28;20110;-70
2022/08/30 03:05:43;;;;;;;6.43;3.50;;;12.70;99.90;;;;;;5070127;28;20041;-71
2022/08/30 03:08:10;;;;;;;6.38;3.17;;;12.70;99.90;;;;;;5070217;28;20037;-69
2022/08/30 03:10:37;;;;;;;9.20;3.15;;;12.70;99.90;;;;;;5051804;28;20044;-69
2022/08/30 03:13:04;;;;;;;5.45;3.20;;;12.70;99.90;;;;;;5071353;28;20471;-70
2022/08/30 03:15:30;;;;;;;3.92;2.67;;;12.60;99.90;;;;;;5090379;28;20040;-70
2022/08/30 03:17:57;;;;;;;5.60;3.50;;;12.60;99.90;;;;;;5043814;28;20055;-71
2022/08/30 03:20:23;;;;;;;7.72;3.42;;;12.60;99.90;;;;;;5049496;28;20728;-72
2022/08/30 03:22:49;;;;;;;5.13;3.17;;;12.60;99.90;;;;;;5050167;28;20060;-71
2022/08/30 03:25:15;;;;;;;4.88;3.20;;;12.90;99.90;;;;;;5049886;28;20052;-72
2022/08/30 03:27:40;;;;;;;5.13;3.15;;;12.60;99.90;;;;;;5050892;28;20369;-72
2022/08/30 03:30:07;;;;;;;7.15;5.70;;;12.60;99.90;;;;;;5049589;28;20060;-71
2022/08/30 03:32:33;;;;;;;9.13;4.85;;;12.60;99.90;;;;;;5049747;28;20416;-72
2022/08/30 03:34:59;;;;;;;4.95;3.63;;;12.50;99.90;;;;;;5049239;28;20045;-71
2022/08/30 03:37:26;;;;;;;7.55;5.40;;;12.50;99.90;;;;;;5049616;28;20045;-71
2022/08/30 03:39:52;;;;;;;5.25;3.40;;;12.50;99.90;;;;;;5060497;28;20078;-72
2022/08/30 03:42:18;;;;;;;6.72;3.20;;;12.40;99.90;;;;;;5088390;28;20055;-72
2022/08/30 03:44:44;;;;;;;5.82;3.00;;;12.30;99.90;;;;;;5066646;28;20066;-71
2022/08/30 03:47:10;;;;;;;7.88;3.40;;;12.40;99.90;;;;;;5069904;28;20044;-70
2022/08/30 03:49:35;;;;;;;7.68;3.05;;;12.30;99.90;;;;;;5061815;28;20109;-70
2022/08/30 03:52:01;;;;;;;5.45;2.55;;;12.30;99.90;;;;;;5070885;28;20510;-71
2022/08/30 03:54:27;;;;;;;4.32;2.72;;;12.20;99.90;;;;;;5073881;28;20067;-71
2022/08/30 03:56:53;;;;;;;5.70;2.70;;;12.20;99.90;;;;;;5088587;28;20048;-70
2022/08/30 03:59:19;;;;;;;4.20;2.60;;;12.10;99.90;;;;;;5092191;28;20052;-69
2022/08/30 04:01:46;;;;;;;4.65;2.83;;;12.10;99.90;;;;;;5075858;28;20067;-70
2022/08/30 04:04:12;;;;;;;3.75;2.75;;;12.20;99.90;;;;;;5061867;28;20050;-72
2022/08/30 04:06:38;;;;;;;5.72;2.25;;;12.00;99.90;;;;;;5052705;28;20507;-70
2022/08/30 04:09:03;;;;;;;3.30;2.15;;;12.00;99.90;;;;;;5053269;28;20049;-71
2022/08/30 04:11:29;;;;;;;4.28;2.38;;;11.90;99.90;;;;;;5054275;28;20073;-71
2022/08/30 04:13:55;;;;;;;5.88;2.72;;;11.90;99.90;;;;;;5067115;28;20031;-71
2022/08/30 04:16:22;;;;;;;5.40;2.42;;;11.90;99.90;;;;;;5070458;28;20109;-71
2022/08/30 04:18:48;;;;;;;5.82;2.85;;;11.90;99.90;;;;;;5052820;28;20041;-70
2022/08/30 04:21:14;;;;;;;4.95;2.85;;;11.90;99.90;;;;;;5069736;28;20086;-72
2022/08/30 04:23:41;;;;;;;3.60;2.92;;;11.80;99.90;;;;;;5072179;28;20049;-72
2022/08/30 04:26:07;;;;;;;2.28;1.55;;;11.80;99.90;;;;;;5072961;28;20147;-71
2022/08/30 04:28:34;;;;;;;3.42;2.20;;;11.70;99.90;;;;;;5054510;28;20049;-72
2022/08/30 04:31:10;;;;;;;3.45;2.00;;;11.70;99.90;;;;;;5072287;28;20037;-70
2022/08/30 04:33:36;;;;;;;3.72;2.13;;;11.60;99.90;;;;;;5082886;28;20047;-71
2022/08/30 04:36:03;;;;;;;4.72;2.60;;;11.60;99.90;;;;;;5072566;28;20452;-75
2022/08/30 04:38:31;;;;;;;4.95;3.15;;;11.60;99.90;;;;;;5072583;28;20098;-72
2022/08/30 04:40:56;;;;;;;6.82;3.28;;;11.50;99.90;;;;;;5072963;28;20053;-71
2022/08/30 04:43:24;;;;;;;4.70;3.10;;;11.60;99.90;;;;;;5041902;28;20067;-70
2022/08/30 04:45:51;;;;;;;6.60;3.03;;;11.50;99.90;;;;;;5053659;28;20087;-70
2022/08/30 04:48:17;;;;;;;5.47;2.70;;;11.50;99.90;;;;;;5034737;28;20497;-70
2022/08/30 04:50:43;;;;;;;6.68;2.08;;;11.50;99.90;;;;;;5052327;28;20056;-71
2022/08/30 04:53:08;;;;;;;4.53;2.17;;;11.50;99.90;;;;;;5051820;28;20052;-70
2022/08/30 04:55:34;;;;;;;6.15;2.65;;;11.50;99.90;;;;;;5035088;28;20076;-72
2022/08/30 04:58:00;;;;;;;4.80;2.55;;;11.50;99.90;;;;;;5033921;28;20053;-71
2022/08/30 05:00:26;;;;;;;8.48;3.08;;;11.50;99.90;;;;;;5053154;28;20114;-71
2022/08/30 05:02:51;;;;;;;6.60;3.47;;;11.50;99.90;;;;;;5034006;28;20053;-69
2022/08/30 05:08:02;;;;;;;9.45;3.80;;;11.50;99.90;;;;;;5072145;28;20040;-71
2022/08/30 05:10:28;;;;;;;5.28;2.75;;;11.60;99.90;;;;;;5071468;28;20106;-73
2022/08/30 05:12:54;;;;;;;5.78;2.42;;;11.50;99.90;;;;;;5067373;28;20045;-71
2022/08/30 05:15:21;;;;;;;3.67;2.05;;;11.50;99.90;;;;;;5071992;28;20105;-72
2022/08/30 05:17:47;;;;;;;6.75;2.90;;;11.50;99.90;;;;;;5057282;28;20037;-74
2022/08/30 05:20:13;;;;;;;6.03;3.40;;;11.50;99.90;;;;;;5051676;28;20052;-72
2022/08/30 05:22:48;;;;;;;6.75;3.63;;;11.50;99.90;;;;;;5064702;28;20040;-73
2022/08/30 05:25:15;;;;;;;7.28;3.08;;;11.50;99.90;;;;;;5071412;28;20063;-71
2022/08/30 05:27:41;;;;;;;4.35;3.20;;;11.60;99.90;;;;;;5076388;28;20386;-70
2022/08/30 05:30:07;;;;;;;4.10;2.78;;;11.50;99.90;;;;;;5085738;28;20051;-74
2022/08/30 05:32:33;;;;;;;4.85;2.45;;;11.60;99.90;;;;;;5091866;28;20052;-70
2022/08/30 05:34:59;;;;;;;4.57;2.85;;;11.60;99.90;;;;;;5091966;28;20045;-69
2022/08/30 05:37:24;;;;;;;5.70;3.38;;;11.60;99.90;;;;;;5081903;28;20396;-71
2022/08/30 05:39:50;;;;;;;7.15;3.70;;;11.70;99.90;;;;;;5071777;28;20494;-73
2022/08/30 05:42:16;;;;;;;7.82;3.92;;;12.00;99.90;;;;;;5070634;28;20400;-71
2022/08/30 05:44:41;;;;;;;6.35;4.07;;;11.70;99.90;;;;;;5053687;28;20049;-73
2022/08/30 05:47:07;;;;;;;6.57;4.13;;;11.80;99.90;;;;;;5071013;28;20028;-71
2022/08/30 05:49:33;;;;;;;8.27;4.35;;;11.90;99.90;;;;;;5069317;28;20052;-72
2022/08/30 05:51:58;;;;;;;7.95;5.25;;;12.00;99.90;;;;;;5071189;28;20127;-73
2022/08/30 05:54:24;;;;;;;12.07;4.93;;;12.10;99.90;;;;;;5071048;28;20053;-73
2022/08/30 05:56:49;;;;;;;8.45;4.93;;;12.20;99.90;;;;;;5069234;28;20044;-72
2022/08/30 05:59:15;;;;;;;7.72;5.38;;;12.40;99.90;;;;;;5052118;28;20075;-71
2022/08/30 06:01:44;;;;;;;9.98;5.10;;;12.60;99.90;;;;;;5050951;28;20064;-70
2022/08/30 06:04:11;;;;;;;10.50;4.93;;;12.90;99.90;;;;;;5050952;28;20408;-70
2022/08/30 06:06:38;;;;;;;9.02;5.10;;;12.70;99.90;;;;;;5050698;28;20135;-72
2022/08/30 06:09:05;;;;;;;11.38;6.13;;;12.80;99.90;;;;;;5051359;28;20052;-73
2022/08/30 06:11:32;;;;;;;7.65;5.00;;;13.10;99.90;;;;;;5032893;28;20111;-71
2022/08/30 06:13:58;;;;;;;10.40;5.90;;;13.00;99.90;;;;;;5056541;28;20127;-71
2022/08/30 06:16:26;;;;;;;8.50;5.70;;;13.30;99.90;;;;;;5087522;28;20469;-70
2022/08/30 06:18:52;;;;;;;14.85;5.60;;;13.20;99.90;;;;;;5087714;28;20043;-71
2022/08/30 06:21:20;;;;;;;10.98;5.97;;;13.30;99.90;;;;;;5066436;28;20049;-71
2022/08/30 06:23:46;;;;;;;9.25;5.70;;;13.40;99.90;;;;;;5051106;28;20440;-70
2022/08/30 06:26:12;;;;;;;12.85;5.38;;;13.70;99.90;;;;;;5047372;28;20044;-71
2022/08/30 06:28:37;;;;;;;10.15;5.28;;;13.70;99.90;;;;;;5058993;28;20108;-71
2022/08/30 06:31:08;;;;;;;14.27;5.05;;;13.80;99.90;;;;;;5050457;28;20087;-70
2022/08/30 06:33:35;;;;;;;8.63;4.88;;;13.90;99.90;;;;;;5037478;28;20081;-69
2022/08/30 06:36:06;;;;;;;8.48;4.55;;;14.00;99.90;;;;;;5072515;28;20044;-70
2022/08/30 06:38:31;;;;;;;11.30;4.72;;;14.10;99.90;;;;;;5062283;28;20135;-71
2022/08/30 06:40:57;;;;;;;9.13;4.30;;;14.30;99.90;;;;;;5055527;28;20119;-70
2022/08/30 06:43:23;;;;;;;9.73;4.10;;;14.30;99.90;;;;;;5067165;28;20510;-73
2022/08/30 06:45:48;;;;;;;8.40;3.70;;;14.40;99.90;;;;;;5075007;28;20045;-70
2022/08/30 06:48:14;;;;;;;9.45;3.35;;;14.50;99.90;;;;;;5066458;28;20032;-69
2022/08/30 06:50:40;;;;;;;9.13;3.30;;;14.60;99.90;;;;;;5090610;28;20044;-70
2022/08/30 06:53:07;;;;;;;8.70;2.92;;;14.70;99.90;;;;;;5051658;28;20049;-73
2022/08/30 06:55:32;;;;;;;9.80;2.88;;;14.80;99.90;;;;;;5052341;28;20148;-71
2022/08/30 06:57:59;;;;;;;6.35;2.70;;;15.20;99.90;;;;;;5050383;28;20048;-72
2022/08/30 07:00:26;;;;;;;7.03;2.20;;;15.10;99.90;;;;;;5067908;28;20484;-73
2022/08/30 07:02:52;;;;;;;9.90;2.42;;;15.20;99.90;;;;;;5051579;28;20052;-72
2022/08/30 07:05:20;;;;;;;11.27;2.70;;;15.40;99.90;;;;;;5067939;28;20415;-74
2022/08/30 07:07:46;;;;;;;4.22;2.10;;;15.40;99.90;;;;;;5069975;28;20115;-73
2022/08/30 07:10:13;;;;;;;9.70;2.30;;;15.50;99.90;;;;;;5067564;28;20150;-72
2022/08/30 07:12:39;;;;;;;6.10;1.92;;;15.60;99.90;;;;;;5090099;28;20059;-72
2022/08/30 07:15:06;;;;;;;6.45;2.10;;;15.90;99.90;;;;;;5057540;28;20130;-71
2022/08/30 07:20:18;;;;;;;6.68;1.63;;;16.00;99.90;;;;;;5068543;28;20115;-70
2022/08/30 07:22:44;;;;;;;8.32;1.55;;;16.10;99.90;;;;;;5054717;28;20178;-71
2022/08/30 07:25:10;;;;;;;3.67;1.50;;;16.40;99.90;;;;;;5066975;28;20044;-74
2022/08/30 07:27:36;;;;;;;4.25;1.40;;;16.30;99.90;;;;;;5052711;28;20064;-73
2022/08/30 07:30:02;;;;;;;6.13;1.42;;;16.50;99.90;;;;;;5060624;28;20380;-71
2022/08/30 07:32:28;;;;;;;4.30;1.42;;;16.50;99.90;;;;;;5057366;28;20559;-72
2022/08/30 07:34:54;;;;;;;6.22;1.30;;;16.60;99.90;;;;;;5054911;28;20044;-72
2022/08/30 07:37:19;;;;;;;5.63;1.55;;;16.80;99.90;;;;;;5064983;28;20048;-74
2022/08/30 07:39:45;;;;;;;3.40;1.20;;;16.80;99.90;;;;;;5070187;28;20639;-71
2022/08/30 07:42:11;;;;;;;3.50;1.58;;;16.90;99.90;;;;;;5090358;28;20046;-73
2022/08/30 07:44:36;;;;;;;4.40;1.30;;;17.00;99.90;;;;;;5092866;28;20040;-72
2022/08/30 07:47:02;;;;;;;4.03;1.42;;;17.10;99.90;;;;;;5044771;28;20048;-75
2022/08/30 07:49:28;;;;;;;4.05;1.20;;;17.20;99.90;;;;;;5089676;28;20107;-77
2022/08/30 07:51:56;;;;;;;3.67;1.15;;;17.30;99.90;;;;;;5057706;28;20049;-72
2022/08/30 07:54:21;;;;;;;4.00;1.10;;;17.40;99.90;;;;;;5086194;28;20040;-72
2022/08/30 07:56:47;;;;;;;5.22;1.08;;;17.60;99.90;;;;;;5086988;28;20051;-76
2022/08/30 07:59:13;;;;;;;2.88;1.27;;;17.70;99.90;;;;;;5081535;28;20462;-69
2022/08/30 08:01:39;;;;;;;2.20;0.82;;;17.80;99.90;;;;;;5062169;28;20127;-75
2022/08/30 08:04:05;;;;;;;3.10;1.10;;;17.90;99.90;;;;;;5058742;28;20076;-72
2022/08/30 08:06:31;;;;;;;3.10;1.00;;;18.10;99.90;;;;;;5090636;28;20036;-75
2022/08/30 08:09:01;;;;;;;5.03;1.10;;;18.20;99.90;;;;;;5091806;28;20047;-71
2022/08/30 08:11:27;;;;;;;11.13;1.17;;;18.30;99.90;;;;;;5054563;28;20156;-79
2022/08/30 08:13:53;;;;;;;3.35;0.85;;;18.40;99.90;;;;;;5073049;28;20096;-71
2022/08/30 08:16:20;;;;;;;2.47;0.90;;;18.70;99.90;;;;;;5078256;28;20055;-72
2022/08/30 08:18:46;;;;;;;5.88;1.05;;;18.90;99.90;;;;;;5092838;28;20144;-77
2022/08/30 08:21:12;;;;;;;4.85;1.00;;;19.10;99.90;;;;;;5093504;28;20127;-73
2022/08/30 08:23:38;;;;;;;3.75;1.23;;;19.00;99.90;;;;;;5093484;28;20083;-73
2022/08/30 08:26:03;;;;;;;10.50;1.75;;;19.30;99.90;;;;;;5068976;28;20044;-73
2022/08/30 08:28:29;;;;;;;2.60;1.13;;;19.40;99.90;;;;;;5068036;28;20138;-74
2022/08/30 08:30:55;;;;;;;5.55;0.95;;;19.60;99.90;;;;;;5072546;28;20045;-69
2022/08/30 08:33:22;;;;;;;5.80;1.20;;;19.70;99.90;;;;;;5082903;28;20032;-78
2022/08/30 08:35:48;;;;;;;2.97;0.90;;;19.90;99.90;;;;;;5093116;28;20079;-73
2022/08/30 08:38:14;;;;;;;3.05;0.70;;;20.20;99.90;;;;;;5068660;28;20086;-74
2022/08/30 08:40:50;;;;;;;2.70;0.90;;;20.40;99.90;;;;;;5058720;28;20040;-73
2022/08/30 08:43:21;;;;;;;4.97;1.10;;;20.40;99.90;;;;;;5086869;28;20126;-74
2022/08/30 08:46:18;;;;;;;4.75;1.83;;;20.70;99.90;;;;;;5078980;28;20059;-77
2022/08/30 08:48:50;;;;;;;3.20;1.00;;;20.70;99.90;;;;;;5052751;28;20067;-77
2022/08/30 08:54:17;;;;;;;6.18;1.05;;;20.60;99.90;;;;;;5072067;28;20044;-74
2022/08/30 08:56:43;;;;;;;2.83;0.80;;;20.60;99.90;;;;;;5068116;28;20070;-73
2022/08/30 08:59:12;;;;;;;4.43;1.10;;;20.50;99.90;;;;;;5032916;28;20066;-74
2022/08/30 09:01:38;;;;;;;4.53;1.83;;;20.50;99.90;;;;;;5051884;28;20045;-75
2022/08/30 09:04:29;;;;;;;1.95;0.80;;;20.80;99.90;;;;;;5052153;28;20045;-72
2022/08/30 09:07:28;;;;;;;2.08;0.60;;;21.00;99.90;;;;;;5039948;28;20048;-73
2022/08/30 09:09:56;;;;;;;4.32;0.82;;;21.30;99.90;;;;;;5072816;28;20084;-71
2022/08/30 09:12:22;;;;;;;3.30;0.93;;;21.40;99.90;;;;;;5072504;28;20478;-71
2022/08/30 09:14:54;;;;;;;2.60;1.00;;;21.50;99.90;;;;;;5072523;28;20076;-72
2022/08/30 09:17:21;;;;;;;7.03;0.95;;;21.80;99.90;;;;;;5072270;28;20098;-71
2022/08/30 09:19:55;;;;;;;16.50;1.85;;;21.70;99.90;;;;;;5071833;28;20054;-73
2022/08/30 09:22:33;;;;;;;3.90;0.80;;;21.80;99.90;;;;;;5071773;28;20095;-72
2022/08/30 09:25:00;;;;;;;4.03;1.00;;;22.10;99.90;;;;;;5071729;28;20234;-73
2022/08/30 09:27:42;;;;;;;1.98;0.65;;;22.00;99.90;;;;;;5053513;28;20062;-73
2022/08/30 09:30:28;;;;;;;3.58;1.02;;;22.00;99.90;;;;;;5071467;28;20106;-74
2022/08/30 09:33:02;;;;;;;4.00;0.88;;;22.00;99.90;;;;;;5053741;28;20056;-72
2022/08/30 09:35:43;;;;;;;3.80;0.73;;;21.80;99.90;;;;;;5071595;28;20094;-72
2022/08/30 09:38:15;;;;;;;4.57;0.90;;;21.90;99.90;;;;;;5071167;28;20532;-72
2022/08/30 09:40:44;;;;;;;4.22;1.20;;;22.00;99.90;;;;;;5071226;28;20048;-72
2022/08/30 09:43:26;;;;;;;14.48;1.27;;;21.90;99.90;;;;;;5071527;28;20047;-73
2022/08/30 09:46:00;;;;;;;10.85;1.48;;;22.20;99.90;;;;;;5071463;28;20407;-71
2022/08/30 09:48:31;;;;;;;1.67;0.77;;;22.10;99.90;;;;;;5053369;28;20164;-73
2022/08/30 09:51:12;;;;;;;4.57;0.80;;;22.10;99.90;;;;;;5071093;28;20052;-72
2022/08/30 09:54:16;;;;;;;3.05;1.00;;;21.70;98.60;;;;;;5070671;28;20135;-72
2022/08/30 09:57:10;;;;;;;2.17;0.93;;;21.50;99.90;;;;;;5065976;28;20079;-72
2022/08/30 09:59:39;;;;;;;2.97;0.98;;;21.70;99.90;;;;;;5070939;28;20442;-72
2022/08/30 10:02:20;;;;;;;2.78;0.88;;;22.20;99.90;;;;;;5071192;28;20060;-72
2022/08/30 10:04:58;;;;;;;5.85;0.95;;;22.50;99.90;;;;;;5071020;28;20078;-72
2022/08/30 10:07:42;;;;;;;3.28;0.77;;;22.80;99.90;;;;;;5070642;28;20052;-72
2022/08/30 10:10:13;;;;;;;4.35;1.00;;;22.50;98.80;;;;;;5070621;28;20052;-71
2022/08/30 10:13:18;;;;;;;5.18;0.90;;;22.30;99.90;;;;;;5071055;28;20072;-71
2022/08/30 10:15:54;;;;;;;3.55;0.80;;;22.40;99.60;;;;;;5053051;28;20380;-71
2022/08/30 10:19:02;;;;;;;2.28;0.80;;;22.30;98.80;;;;;;5070126;28;20056;-71
2022/08/30 10:21:46;;;;;;;2.85;1.00;;;22.20;98.00;;;;;;4993320;28;20103;-73
2022/08/30 10:24:14;;;;;;;2.28;0.88;;;22.00;97.60;;;;;;5020599;28;20108;-74
2022/08/30 10:26:50;;;;;;;2.85;0.75;;;22.00;99.00;;;;;;5008886;28;20058;-71
2022/08/30 10:29:31;;;;;;;2.47;0.70;;;22.40;99.30;;;;;;5008241;28;20061;-73
2022/08/30 10:32:03;;;;;;;4.05;1.40;;;22.40;98.40;;;;;;5008273;28;20057;-72
2022/08/30 10:34:39;;;;;;;5.90;1.15;;;22.10;98.10;;;;;;4991702;28;20046;-75
2022/08/30 10:37:30;;;;;;;7.88;0.85;;;21.90;97.70;;;;;;4988703;28;20081;-72
2022/08/30 10:41:11;;;;;;;3.40;0.80;;;22.20;97.40;;;;;;4930296;29;20090;-71
2022/08/30 10:42:49;;;;;;;6.05;0.80;;;22.30;97.40;;;;;;4927248;28;20053;-73
2022/08/30 10:45:16;;;;;;;2.08;0.63;;;22.30;97.50;;;;;;4969182;28;20055;-72
2022/08/30 10:48:05;;;;;;;1.88;0.75;;;22.70;97.80;;;;;;4966849;28;20486;-73
2022/08/30 10:50:36;;;;;;;2.42;0.80;;;22.70;97.20;;;;;;4952707;28;20062;-75
2022/08/30 10:53:39;;;;;;;1.38;0.60;;;23.00;97.50;;;;;;4968961;28;20445;-72
2022/08/30 10:56:08;;;;;;;1.85;0.60;;;23.20;96.80;;;;;;4961978;28;20058;-73
2022/08/30 10:58:37;;;;;;;6.03;0.70;;;23.50;97.70;;;;;;4926202;29;20059;-72
2022/08/30 11:01:06;;;;;;;5.18;0.70;;;23.60;95.90;;;;;;4968107;28;20050;-72
2022/08/30 11:03:53;;;;;;;3.05;0.77;;;23.80;97.00;;;;;;4950510;28;20070;-73
2022/08/30 11:06:33;;;;;;;3.88;0.60;;;24.00;96.80;;;;;;4984215;28;20097;-73
2022/08/30 11:09:48;;;;;;;3.50;0.80;;;24.20;95.90;;;;;;4968977;28;20502;-71
2022/08/30 11:12:33;;;;;;;3.00;0.70;;;24.40;95.40;;;;;;4895403;29;20056;-75
2022/08/30 11:14:59;;;;;;;;;;;24.60;94.70;;;;;;4911907;29;20135;-72
2022/08/30 11:17:33;;;;;;;3.65;1.00;;;24.70;94.20;;;;;;4923426;29;19934;-75
2022/08/30 11:20:01;;;;;;;3.95;0.93;;;24.90;95.00;;;;;;4949381;29;20102;-74
2022/08/30 11:22:28;;;;;;;1.90;0.60;;;25.10;95.80;;;;;;4949691;29;20055;-75
2022/08/30 11:25:13;;;;;;;4.03;1.05;;;25.30;95.50;;;;;;4960910;28;20045;-75
2022/08/30 11:27:55;;;;;;;3.17;0.80;;;25.50;94.30;;;;;;4968240;28;20652;-77
2022/08/30 11:30:23;;;;;;;4.05;0.55;;;25.70;94.10;;;;;;4964130;28;20059;-74
2022/08/30 11:33:10;;;;;;;3.65;0.95;;;25.60;94.70;;;;;;4968409;28;20051;-75
2022/08/30 11:35:41;;;;;;;4.63;0.88;;;25.80;93.80;;;;;;4949539;29;20509;-77
2022/08/30 11:38:24;;;;;;;1.80;0.75;;;25.60;92.50;;;;;;4949513;29;20055;-79
2022/08/30 11:41:05;;;;;;;2.17;0.70;;;25.60;93.30;;;;;;4953961;28;20409;-77
2022/08/30 11:43:34;;;;;;;2.15;0.63;;;25.50;91.90;;;;;;4963706;28;20524;-75
2022/08/30 11:46:26;;;;;;;5.35;0.90;;;25.60;92.60;;;;;;4982332;28;20148;-72
2022/08/30 11:49:01;;;;;;;1.73;0.52;;;25.40;92.00;;;;;;4944305;28;20047;-74
2022/08/30 11:51:46;;;;;;;1.52;0.60;;;25.10;92.10;;;;;;4959285;28;20062;-72
2022/08/30 11:54:43;;;;;;;2.60;0.70;;;25.40;92.90;;;;;;4988312;28;20062;-79
2022/08/30 11:57:34;;;;;;;2.75;1.00;;;25.60;92.20;;;;;;4941986;29;20558;-74
2022/08/30 12:00:21;;;;;;;8.20;1.15;;;25.60;91.90;;;;;;4929895;29;20383;-76
2022/08/30 12:03:06;;;;;;;3.35;0.90;;;25.70;92.70;;;;;;4930037;29;20543;-73
2022/08/30 12:05:38;;;;;;;2.38;0.68;;;25.80;92.20;;;;;;4929883;29;20052;-76
2022/08/30 12:08:27;;;;;;;7.18;0.90;;;25.90;91.80;;;;;;4915086;29;20542;-74
2022/08/30 12:10:58;;;;;;;2.75;0.60;;;25.70;91.10;;;;;;4910600;29;20063;-73
2022/08/30 12:13:33;;;;;;;2.40;0.55;;;25.90;91.80;;;;;;4940337;29;20560;-73
2022/08/30 12:18:26;;;;;;;3.13;0.90;;;26.10;91.50;;;;;;4952961;29;20043;-75
2022/08/30 12:19:29;;;;;;;11.93;0.93;;;26.00;90.20;;;;;;4917359;29;20115;-74
2022/08/30 12:22:01;;;;;;;3.67;0.77;;;26.00;91.00;;;;;;4922658;29;20059;-76
2022/08/30 12:24:38;;;;;;;4.53;0.60;;;26.00;90.80;;;;;;4952184;29;20047;-74
2022/08/30 12:27:43;;;;;;;2.55;0.70;;;26.00;90.30;;;;;;5022923;28;20057;-77
2022/08/30 12:30:09;;;;;;;2.30;0.70;;;25.90;89.40;;;;;;4951796;29;20050;-75
2022/08/30 12:32:44;;;;;;;4.25;0.85;;;26.00;91.00;;;;;;4952350;28;20060;-75
2022/08/30 12:35:18;;;;;;;1.33;0.73;;;26.00;90.50;;;;;;4971369;28;20536;-75
2022/08/30 12:37:55;;;;;;;4.03;0.93;;;26.10;90.60;;;;;;4971698;28;20109;-79
2022/08/30 12:40:22;;;;;;;2.92;0.68;;;26.10;89.60;;;;;;4955289;28;20053;-75
2022/08/30 12:42:57;;;;;;;2.80;0.80;;;26.00;90.40;;;;;;4980681;28;20042;-77
2022/08/30 12:45:30;;;;;;;5.22;0.60;;;25.90;89.60;;;;;;4990207;28;20085;-77
2022/08/30 12:48:02;;;;;;;2.67;0.60;;;25.90;88.80;;;;;;4974283;28;20444;-76
2022/08/30 12:50:35;;;;;;;15.23;0.85;;;26.00;89.80;;;;;;4990682;28;20079;-76
2022/08/30 12:53:08;;;;;;;2.03;0.70;;;26.20;88.70;;;;;;4990486;28;20081;-75
2022/08/30 12:55:49;;;;;;;2.88;0.80;;;26.10;88.50;;;;;;4990715;28;20149;-76
2022/08/30 12:58:15;;;;;;;2.28;0.75;;;25.80;87.00;;;;;;4974162;28;20054;-76
2022/08/30 13:00:45;;;;;;;3.40;0.70;;;25.60;88.80;;;;;;5007540;28;20107;-78
2022/08/30 13:03:33;;;;;;;2.85;0.85;;;25.70;89.60;;;;;;5032538;28;20045;-77
2022/08/30 13:05:58;;;;;;;4.28;1.15;;;25.90;88.80;;;;;;5032324;28;20477;-76
2022/08/30 13:08:35;;;;;;;3.35;0.75;;;26.10;88.10;;;;;;5032354;28;20140;-74
2022/08/30 13:11:01;;;;;;;1.77;0.60;;;26.20;89.20;;;;;;5014191;28;20132;-76